sensor_id;sensor_type;location;lat;lon;timestamp;temperature;humidity
1277;DHT22;631;51.024;13.826;2022-12-18T00:01:33;-7.10;99.90
1277;DHT22;631;51.024;13.826;2022-12-18T00:04:00;-7.20;99.90
1277;DHT22;631;51.024;13.826;2022-12-18T00:06:27;-7.20;99.90
1277;DHT22;631;51.024;13.826;2022-12-18T00:08:55;-7.20;99.90
1277;DHT22;631;51.024;13.826;2022-12-18T00:11:22;-7.20;99.90
1277;DHT22;631;51.024;13.826;2022-12-18T00:13:49;-7.20;99.90
1277;DHT22;631;51.024;13.826;2022-12-18T00:16:20;-7.30;99.90
1277;DHT22;631;51.024;13.826;2022-12-18T00:18:46;-7.30;99.90
1277;DHT22;631;51.024;13.826;2022-12-18T00:21:12;-7.30;99.90
1277;DHT22;631;51.024;13.826;2022-12-18T00:23:40;-7.30;99.90
1277;DHT22;631;51.024;13.826;2022-12-18T00:26:10;-7.20;99.90
1277;DHT22;631;51.024;13.826;2022-12-18T00:28:41;-7.20;99.90
1277;DHT22;631;51.024;13.826;2022-12-18T00:31:09;-7.30;99.90
1277;DHT22;631;51.024;13.826;2022-12-18T00:33:36;-7.30;99.90
1277;DHT22;631;51.024;13.826;2022-12-18T00:36:07;-7.40;99.90
1277;DHT22;631;51.024;13.826;2022-12-18T00:38:34;-7.40;99.90
1277;DHT22;631;51.024;13.826;2022-12-18T00:41:01;-7.50;99.90
1277;DHT22;631;51.024;13.826;2022-12-18T00:43:27;-7.50;99.90
1277;DHT22;631;51.024;13.826;2022-12-18T00:45:53;-7.50;99.90
1277;DHT22;631;51.024;13.826;2022-12-18T00:48:18;-7.60;99.90
1277;DHT22;631;51.024;13.826;2022-12-18T00:50:44;-7.60;99.90
1277;DHT22;631;51.024;13.826;2022-12-18T00:53:10;-7.60;99.90
1277;DHT22;631;51.024;13.826;2022-12-18T00:55:39;-7.70;99.90
1277;DHT22;631;51.024;13.826;2022-12-18T00:58:05;-7.70;99.90
1277;DHT22;631;51.024;13.826;2022-12-18T01:00:31;-7.70;99.90
1277;DHT22;631;51.024;13.826;2022-12-18T01:02:57;-7.80;99.90
1277;DHT22;631;51.024;13.826;2022-12-18T01:05:22;-7.80;99.90
1277;DHT22;631;51.024;13.826;2022-12-18T01:07:48;-7.80;99.90
1277;DHT22;631;51.024;13.826;2022-12-18T01:10:14;-7.90;99.90
1277;DHT22;631;51.024;13.826;2022-12-18T01:12:39;-7.90;99.90
1277;DHT22;631;51.024;13.826;2022-12-18T01:15:06;-7.80;99.90
1277;DHT22;631;51.024;13.826;2022-12-18T01:17:32;-7.80;99.90
1277;DHT22;631;51.024;13.826;2022-12-18T01:19:58;-7.90;99.90
1277;DHT22;631;51.024;13.826;2022-12-18T01:22:24;-7.90;99.90
1277;DHT22;631;51.024;13.826;2022-12-18T01:24:50;-8.00;99.90
1277;DHT22;631;51.024;13.826;2022-12-18T01:27:15;-8.00;99.90
1277;DHT22;631;51.024;13.826;2022-12-18T01:29:41;-8.20;99.90
1277;DHT22;631;51.024;13.826;2022-12-18T01:32:08;-8.20;99.90
1277;DHT22;631;51.024;13.826;2022-12-18T01:34:35;-8.20;99.90
1277;DHT22;631;51.024;13.826;2022-12-18T01:37:03;-8.10;99.90
1277;DHT22;631;51.024;13.826;2022-12-18T01:39:29;-8.20;99.90
1277;DHT22;631;51.024;13.826;2022-12-18T01:41:54;-8.20;99.90
1277;DHT22;631;51.024;13.826;2022-12-18T01:47:29;-8.20;99.90
1277;DHT22;631;51.024;13.826;2022-12-18T01:49:57;-8.20;99.90
1277;DHT22;631;51.024;13.826;2022-12-18T01:52:25;-8.30;99.90
1277;DHT22;631;51.024;13.826;2022-12-18T01:54:52;-8.30;99.90
1277;DHT22;631;51.024;13.826;2022-12-18T01:57:19;-8.30;99.90
1277;DHT22;631;51.024;13.826;2022-12-18T01:59:50;-8.30;99.90
1277;DHT22;631;51.024;13.826;2022-12-18T02:02:18;-8.30;99.90
1277;DHT22;631;51.024;13.826;2022-12-18T02:04:45;-8.30;99.90
1277;DHT22;631;51.024;13.826;2022-12-18T02:07:20;-8.30;99.90
1277;DHT22;631;51.024;13.826;2022-12-18T02:09:56;-8.30;99.90
1277;DHT22;631;51.024;13.826;2022-12-18T02:12:28;-8.30;99.90
1277;DHT22;631;51.024;13.826;2022-12-18T02:15:09;-8.30;99.90
1277;DHT22;631;51.024;13.826;2022-12-18T02:17:45;-8.30;99.90
1277;DHT22;631;51.024;13.826;2022-12-18T02:28:53;-8.20;99.90
1277;DHT22;631;51.024;13.826;2022-12-18T02:31:27;-8.20;99.90
1277;DHT22;631;51.024;13.826;2022-12-18T02:33:55;-8.20;99.90
1277;DHT22;631;51.024;13.826;2022-12-18T02:36:22;-8.10;99.90
1277;DHT22;631;51.024;13.826;2022-12-18T02:38:50;-8.10;99.90
1277;DHT22;631;51.024;13.826;2022-12-18T02:41:18;-8.10;99.90
1277;DHT22;631;51.024;13.826;2022-12-18T02:43:48;-8.20;99.90
1277;DHT22;631;51.024;13.826;2022-12-18T02:46:31;-8.20;99.90
1277;DHT22;631;51.024;13.826;2022-12-18T02:49:17;-8.20;99.90
1277;DHT22;631;51.024;13.826;2022-12-18T02:51:57;-8.20;99.90
1277;DHT22;631;51.024;13.826;2022-12-18T02:54:31;-8.10;99.90
1277;DHT22;631;51.024;13.826;2022-12-18T02:57:16;-8.00;99.90
1277;DHT22;631;51.024;13.826;2022-12-18T03:00:10;-7.90;99.90
1277;DHT22;631;51.024;13.826;2022-12-18T03:03:12;-7.90;99.90
1277;DHT22;631;51.024;13.826;2022-12-18T03:05:50;-7.80;99.90
1277;DHT22;631;51.024;13.826;2022-12-18T03:08:44;-7.80;99.90
1277;DHT22;631;51.024;13.826;2022-12-18T03:11:13;-7.70;99.90
1277;DHT22;631;51.024;13.826;2022-12-18T03:16:49;-7.70;99.90
1277;DHT22;631;51.024;13.826;2022-12-18T03:19:19;-7.80;99.90
1277;DHT22;631;51.024;13.826;2022-12-18T03:21:49;-7.80;99.90
1277;DHT22;631;51.024;13.826;2022-12-18T03:24:18;-7.80;99.90
1277;DHT22;631;51.024;13.826;2022-12-18T03:26:47;-7.70;99.90
1277;DHT22;631;51.024;13.826;2022-12-18T03:29:35;-7.70;99.90
1277;DHT22;631;51.024;13.826;2022-12-18T03:32:08;-7.70;99.90
1277;DHT22;631;51.024;13.826;2022-12-18T03:34:38;-7.90;99.90
1277;DHT22;631;51.024;13.826;2022-12-18T03:37:06;-7.80;99.90
1277;DHT22;631;51.024;13.826;2022-12-18T03:39:33;-7.80;99.90
1277;DHT22;631;51.024;13.826;2022-12-18T03:42:10;-7.80;99.90
1277;DHT22;631;51.024;13.826;2022-12-18T03:44:49;-7.80;99.90
1277;DHT22;631;51.024;13.826;2022-12-18T03:47:25;-7.90;99.90
1277;DHT22;631;51.024;13.826;2022-12-18T03:52:42;-7.90;99.90
1277;DHT22;631;51.024;13.826;2022-12-18T03:55:12;-7.90;99.90
1277;DHT22;631;51.024;13.826;2022-12-18T03:57:38;-8.00;99.90
1277;DHT22;631;51.024;13.826;2022-12-18T04:00:22;-8.00;99.90
1277;DHT22;631;51.024;13.826;2022-12-18T04:02:51;-8.10;99.90
1277;DHT22;631;51.024;13.826;2022-12-18T04:05:19;-8.20;99.90
1277;DHT22;631;51.024;13.826;2022-12-18T04:07:47;-8.20;99.90
1277;DHT22;631;51.024;13.826;2022-12-18T04:10:14;-8.20;99.90
1277;DHT22;631;51.024;13.826;2022-12-18T04:12:41;-8.20;99.90
1277;DHT22;631;51.024;13.826;2022-12-18T04:15:07;-8.30;99.90
1277;DHT22;631;51.024;13.826;2022-12-18T04:17:33;-8.30;99.90
1277;DHT22;631;51.024;13.826;2022-12-18T04:19:59;-8.40;99.90
1277;DHT22;631;51.024;13.826;2022-12-18T04:22:24;-8.40;99.90
1277;DHT22;631;51.024;13.826;2022-12-18T04:24:50;-8.40;99.90
1277;DHT22;631;51.024;13.826;2022-12-18T04:27:15;-8.50;99.90
1277;DHT22;631;51.024;13.826;2022-12-18T04:29:41;-8.60;99.90
1277;DHT22;631;51.024;13.826;2022-12-18T04:32:07;-8.70;99.90
1277;DHT22;631;51.024;13.826;2022-12-18T04:34:33;-8.70;99.90
1277;DHT22;631;51.024;13.826;2022-12-18T04:36:58;-8.70;99.90
1277;DHT22;631;51.024;13.826;2022-12-18T04:39:24;-8.80;99.90
1277;DHT22;631;51.024;13.826;2022-12-18T04:41:50;-8.80;99.90
1277;DHT22;631;51.024;13.826;2022-12-18T04:44:15;-8.80;99.90
1277;DHT22;631;51.024;13.826;2022-12-18T04:46:41;-8.90;99.90
1277;DHT22;631;51.024;13.826;2022-12-18T04:49:07;-8.90;99.90
1277;DHT22;631;51.024;13.826;2022-12-18T04:51:32;-8.90;99.90
1277;DHT22;631;51.024;13.826;2022-12-18T04:53:58;-8.90;99.90
1277;DHT22;631;51.024;13.826;2022-12-18T04:56:24;-8.90;99.90
1277;DHT22;631;51.024;13.826;2022-12-18T04:58:49;-9.00;99.90
1277;DHT22;631;51.024;13.826;2022-12-18T05:01:17;-9.00;99.90
1277;DHT22;631;51.024;13.826;2022-12-18T05:03:42;-9.10;99.90
1277;DHT22;631;51.024;13.826;2022-12-18T05:06:08;-9.10;99.90
1277;DHT22;631;51.024;13.826;2022-12-18T05:08:34;-9.10;99.90
1277;DHT22;631;51.024;13.826;2022-12-18T05:11:02;-9.10;99.90
1277;DHT22;631;51.024;13.826;2022-12-18T05:13:29;-9.10;99.90
1277;DHT22;631;51.024;13.826;2022-12-18T05:15:55;-9.10;99.90
1277;DHT22;631;51.024;13.826;2022-12-18T05:18:25;-9.10;99.90
1277;DHT22;631;51.024;13.826;2022-12-18T05:20:52;-9.10;99.90
1277;DHT22;631;51.024;13.826;2022-12-18T05:23:18;-9.20;99.90
1277;DHT22;631;51.024;13.826;2022-12-18T05:26:14;-9.20;99.90
1277;DHT22;631;51.024;13.826;2022-12-18T05:28:39;-9.20;99.90
1277;DHT22;631;51.024;13.826;2022-12-18T05:31:05;-9.30;99.90
1277;DHT22;631;51.024;13.826;2022-12-18T05:33:32;-9.30;99.90
1277;DHT22;631;51.024;13.826;2022-12-18T05:36:00;-9.40;99.90
1277;DHT22;631;51.024;13.826;2022-12-18T05:38:27;-9.40;99.90
1277;DHT22;631;51.024;13.826;2022-12-18T05:40:53;-9.40;99.90
1277;DHT22;631;51.024;13.826;2022-12-18T05:43:20;-9.50;99.90
1277;DHT22;631;51.024;13.826;2022-12-18T05:45:47;-9.50;99.90
1277;DHT22;631;51.024;13.826;2022-12-18T05:48:13;-9.50;99.90
1277;DHT22;631;51.024;13.826;2022-12-18T05:50:40;-9.50;99.90
1277;DHT22;631;51.024;13.826;2022-12-18T05:53:06;-9.50;99.90
1277;DHT22;631;51.024;13.826;2022-12-18T05:55:36;-9.60;99.90
1277;DHT22;631;51.024;13.826;2022-12-18T05:58:02;-9.60;99.90
1277;DHT22;631;51.024;13.826;2022-12-18T06:00:28;-9.60;99.90
1277;DHT22;631;51.024;13.826;2022-12-18T06:02:54;-9.60;99.90
1277;DHT22;631;51.024;13.826;2022-12-18T06:05:19;-9.60;99.90
1277;DHT22;631;51.024;13.826;2022-12-18T06:07:45;-9.60;99.90
1277;DHT22;631;51.024;13.826;2022-12-18T06:10:10;-9.70;99.90
1277;DHT22;631;51.024;13.826;2022-12-18T06:12:37;-9.60;99.90
1277;DHT22;631;51.024;13.826;2022-12-18T06:15:02;-9.60;99.90
1277;DHT22;631;51.024;13.826;2022-12-18T06:17:33;-9.70;99.90
1277;DHT22;631;51.024;13.826;2022-12-18T06:19:58;-9.80;99.90
1277;DHT22;631;51.024;13.826;2022-12-18T06:22:24;-9.80;99.90
1277;DHT22;631;51.024;13.826;2022-12-18T06:24:50;-9.90;99.90
1277;DHT22;631;51.024;13.826;2022-12-18T06:27:16;-9.90;99.90
1277;DHT22;631;51.024;13.826;2022-12-18T06:29:41;-9.90;99.90
1277;DHT22;631;51.024;13.826;2022-12-18T06:32:07;-9.90;99.90
1277;DHT22;631;51.024;13.826;2022-12-18T06:34:33;-9.90;99.90
1277;DHT22;631;51.024;13.826;2022-12-18T06:36:59;-10.00;99.90
1277;DHT22;631;51.024;13.826;2022-12-18T06:39:27;-10.00;99.90
1277;DHT22;631;51.024;13.826;2022-12-18T06:41:53;-10.00;99.90
1277;DHT22;631;51.024;13.826;2022-12-18T06:44:19;-10.00;99.90
1277;DHT22;631;51.024;13.826;2022-12-18T06:46:44;-10.00;99.90
1277;DHT22;631;51.024;13.826;2022-12-18T06:49:10;-10.10;99.90
1277;DHT22;631;51.024;13.826;2022-12-18T06:51:36;-10.10;99.90
1277;DHT22;631;51.024;13.826;2022-12-18T06:54:01;-10.10;99.90
1277;DHT22;631;51.024;13.826;2022-12-18T06:56:27;-10.10;99.90
1277;DHT22;631;51.024;13.826;2022-12-18T06:58:53;-10.10;99.90
1277;DHT22;631;51.024;13.826;2022-12-18T07:01:20;-10.10;99.90
1277;DHT22;631;51.024;13.826;2022-12-18T07:03:46;-10.20;99.90
1277;DHT22;631;51.024;13.826;2022-12-18T07:06:17;-10.20;99.90
1277;DHT22;631;51.024;13.826;2022-12-18T07:08:43;-10.20;99.90
1277;DHT22;631;51.024;13.826;2022-12-18T07:11:09;-10.10;99.90
1277;DHT22;631;51.024;13.826;2022-12-18T07:13:34;-10.10;99.90
1277;DHT22;631;51.024;13.826;2022-12-18T07:16:08;-10.10;99.90
1277;DHT22;631;51.024;13.826;2022-12-18T07:18:34;-10.10;99.90
1277;DHT22;631;51.024;13.826;2022-12-18T07:21:04;-10.10;99.90
1277;DHT22;631;51.024;13.826;2022-12-18T07:23:32;-10.10;99.90
1277;DHT22;631;51.024;13.826;2022-12-18T07:26:01;-10.10;99.90
1277;DHT22;631;51.024;13.826;2022-12-18T07:28:27;-10.00;99.90
1277;DHT22;631;51.024;13.826;2022-12-18T07:30:53;-9.90;99.90
1277;DHT22;631;51.024;13.826;2022-12-18T07:33:19;-9.90;99.90
1277;DHT22;631;51.024;13.826;2022-12-18T07:35:44;-9.80;99.90
1277;DHT22;631;51.024;13.826;2022-12-18T07:38:10;-9.80;99.90
1277;DHT22;631;51.024;13.826;2022-12-18T07:40:35;-9.70;99.90
1277;DHT22;631;51.024;13.826;2022-12-18T07:43:01;-9.60;99.90
1277;DHT22;631;51.024;13.826;2022-12-18T07:45:27;-9.60;99.90
1277;DHT22;631;51.024;13.826;2022-12-18T07:47:52;-9.50;99.90
1277;DHT22;631;51.024;13.826;2022-12-18T07:50:18;-9.50;99.90
1277;DHT22;631;51.024;13.826;2022-12-18T07:52:43;-9.40;99.90
1277;DHT22;631;51.024;13.826;2022-12-18T07:55:09;-9.40;99.90
1277;DHT22;631;51.024;13.826;2022-12-18T07:57:35;-9.30;99.90
1277;DHT22;631;51.024;13.826;2022-12-18T08:00:00;-9.30;99.90
1277;DHT22;631;51.024;13.826;2022-12-18T08:02:26;-9.20;99.90
1277;DHT22;631;51.024;13.826;2022-12-18T08:04:51;-9.00;99.90
1277;DHT22;631;51.024;13.826;2022-12-18T08:07:17;-8.90;99.90
1277;DHT22;631;51.024;13.826;2022-12-18T08:09:43;-8.70;99.90
1277;DHT22;631;51.024;13.826;2022-12-18T08:12:08;-8.50;99.90
1277;DHT22;631;51.024;13.826;2022-12-18T08:14:34;-8.20;99.90
1277;DHT22;631;51.024;13.826;2022-12-18T08:16:59;-7.80;99.90
1277;DHT22;631;51.024;13.826;2022-12-18T08:19:25;-7.40;99.90
1277;DHT22;631;51.024;13.826;2022-12-18T08:21:50;-7.00;99.90
1277;DHT22;631;51.024;13.826;2022-12-18T08:24:16;-6.60;99.90
1277;DHT22;631;51.024;13.826;2022-12-18T08:26:42;-6.20;99.90
1277;DHT22;631;51.024;13.826;2022-12-18T08:29:08;-5.70;99.90
1277;DHT22;631;51.024;13.826;2022-12-18T08:31:34;-5.10;99.90
1277;DHT22;631;51.024;13.826;2022-12-18T08:34:00;-4.70;99.90
1277;DHT22;631;51.024;13.826;2022-12-18T08:36:25;-4.20;99.90
1277;DHT22;631;51.024;13.826;2022-12-18T08:38:51;-3.70;99.90
1277;DHT22;631;51.024;13.826;2022-12-18T08:41:18;-3.20;99.90
1277;DHT22;631;51.024;13.826;2022-12-18T08:43:43;-2.80;99.90
1277;DHT22;631;51.024;13.826;2022-12-18T08:46:32;-2.30;99.90
1277;DHT22;631;51.024;13.826;2022-12-18T08:48:59;-1.80;99.90
1277;DHT22;631;51.024;13.826;2022-12-18T08:51:24;-1.40;99.90
1277;DHT22;631;51.024;13.826;2022-12-18T08:53:50;-1.10;99.90
1277;DHT22;631;51.024;13.826;2022-12-18T08:56:16;-0.80;99.90
1277;DHT22;631;51.024;13.826;2022-12-18T08:58:42;-0.30;99.90
1277;DHT22;631;51.024;13.826;2022-12-18T09:01:09;0.00;99.90
1277;DHT22;631;51.024;13.826;2022-12-18T09:03:35;0.50;99.90
1277;DHT22;631;51.024;13.826;2022-12-18T09:06:01;0.50;99.90
1277;DHT22;631;51.024;13.826;2022-12-18T09:08:27;1.10;99.90
1277;DHT22;631;51.024;13.826;2022-12-18T09:10:53;1.30;99.90
1277;DHT22;631;51.024;13.826;2022-12-18T09:13:19;1.60;99.90
1277;DHT22;631;51.024;13.826;2022-12-18T09:15:47;1.80;99.90
1277;DHT22;631;51.024;13.826;2022-12-18T09:18:15;1.90;99.90
1277;DHT22;631;51.024;13.826;2022-12-18T09:20:41;2.40;99.60
1277;DHT22;631;51.024;13.826;2022-12-18T09:23:07;2.80;98.50
1277;DHT22;631;51.024;13.826;2022-12-18T09:25:34;2.90;95.10
1277;DHT22;631;51.024;13.826;2022-12-18T09:28:02;2.60;95.10
1277;DHT22;631;51.024;13.826;2022-12-18T09:30:28;2.30;95.40
1277;DHT22;631;51.024;13.826;2022-12-18T09:32:54;2.30;96.60
1277;DHT22;631;51.024;13.826;2022-12-18T09:35:19;2.30;96.10
1277;DHT22;631;51.024;13.826;2022-12-18T09:37:45;2.70;95.60
1277;DHT22;631;51.024;13.826;2022-12-18T09:40:16;2.50;94.50
1277;DHT22;631;51.024;13.826;2022-12-18T09:42:46;2.60;93.80
1277;DHT22;631;51.024;13.826;2022-12-18T09:45:15;2.70;93.30
1277;DHT22;631;51.024;13.826;2022-12-18T09:47:43;2.70;92.50
1277;DHT22;631;51.024;13.826;2022-12-18T09:50:24;2.90;92.80
1277;DHT22;631;51.024;13.826;2022-12-18T09:52:54;3.30;92.00
1277;DHT22;631;51.024;13.826;2022-12-18T09:55:40;3.50;90.20
1277;DHT22;631;51.024;13.826;2022-12-18T10:00:35;3.50;85.50
1277;DHT22;631;51.024;13.826;2022-12-18T10:03:10;3.30;88.00
1277;DHT22;631;51.024;13.826;2022-12-18T10:13:42;3.30;88.40
1277;DHT22;631;51.024;13.826;2022-12-18T10:16:19;3.60;86.40
1277;DHT22;631;51.024;13.826;2022-12-18T10:24:44;4.20;82.30
1277;DHT22;631;51.024;13.826;2022-12-18T10:27:16;4.20;80.40
1277;DHT22;631;51.024;13.826;2022-12-18T10:29:46;4.00;82.30
1277;DHT22;631;51.024;13.826;2022-12-18T10:32:17;3.80;79.70
1277;DHT22;631;51.024;13.826;2022-12-18T10:34:51;3.90;80.40
1277;DHT22;631;51.024;13.826;2022-12-18T10:37:20;4.10;77.90
1277;DHT22;631;51.024;13.826;2022-12-18T10:40:12;4.00;79.40
1277;DHT22;631;51.024;13.826;2022-12-18T10:42:38;4.40;78.30
1277;DHT22;631;51.024;13.826;2022-12-18T10:45:09;4.40;76.20
1277;DHT22;631;51.024;13.826;2022-12-18T10:47:36;4.70;75.30
1277;DHT22;631;51.024;13.826;2022-12-18T10:50:02;4.70;72.80
1277;DHT22;631;51.024;13.826;2022-12-18T10:52:28;4.40;73.70
1277;DHT22;631;51.024;13.826;2022-12-18T10:55:03;4.30;73.10
1277;DHT22;631;51.024;13.826;2022-12-18T10:57:37;4.70;74.20
1277;DHT22;631;51.024;13.826;2022-12-18T11:02:51;4.20;72.80
1277;DHT22;631;51.024;13.826;2022-12-18T11:07:53;3.80;73.40
1277;DHT22;631;51.024;13.826;2022-12-18T11:13:07;4.00;76.80
1277;DHT22;631;51.024;13.826;2022-12-18T11:15:34;3.90;75.00
1277;DHT22;631;51.024;13.826;2022-12-18T11:17:59;3.90;74.90
1277;DHT22;631;51.024;13.826;2022-12-18T11:20:34;3.60;74.80
1277;DHT22;631;51.024;13.826;2022-12-18T11:23:03;3.50;76.50
1277;DHT22;631;51.024;13.826;2022-12-18T11:25:29;3.40;80.50
1277;DHT22;631;51.024;13.826;2022-12-18T11:38:35;4.20;76.50
1277;DHT22;631;51.024;13.826;2022-12-18T11:44:06;4.40;72.20
1277;DHT22;631;51.024;13.826;2022-12-18T11:46:37;4.70;70.70
1277;DHT22;631;51.024;13.826;2022-12-18T11:49:14;5.20;69.50
1277;DHT22;631;51.024;13.826;2022-12-18T11:51:53;5.20;67.40
1277;DHT22;631;51.024;13.826;2022-12-18T11:54:19;5.00;66.30
1277;DHT22;631;51.024;13.826;2022-12-18T11:56:53;4.60;67.10
1277;DHT22;631;51.024;13.826;2022-12-18T11:59:24;4.60;69.60
1277;DHT22;631;51.024;13.826;2022-12-18T12:07:47;4.90;66.90
1277;DHT22;631;51.024;13.826;2022-12-18T12:16:22;4.30;69.50
1277;DHT22;631;51.024;13.826;2022-12-18T12:19:53;4.30;69.90
1277;DHT22;631;51.024;13.826;2022-12-18T12:22:24;4.40;67.90
1277;DHT22;631;51.024;13.826;2022-12-18T12:27:34;4.40;68.40
1277;DHT22;631;51.024;13.826;2022-12-18T12:38:28;4.70;66.60
1277;DHT22;631;51.024;13.826;2022-12-18T12:41:08;4.40;69.10
1277;DHT22;631;51.024;13.826;2022-12-18T12:43:57;4.50;68.20
1277;DHT22;631;51.024;13.826;2022-12-18T12:46:25;4.00;67.70
1277;DHT22;631;51.024;13.826;2022-12-18T12:48:57;4.10;68.70
1277;DHT22;631;51.024;13.826;2022-12-18T12:51:30;4.30;69.00
1277;DHT22;631;51.024;13.826;2022-12-18T12:53:58;4.20;68.00
1277;DHT22;631;51.024;13.826;2022-12-18T12:56:27;3.90;68.50
1277;DHT22;631;51.024;13.826;2022-12-18T13:04:40;2.50;77.40
1277;DHT22;631;51.024;13.826;2022-12-18T13:07:18;2.10;80.30
1277;DHT22;631;51.024;13.826;2022-12-18T13:10:22;1.90;82.50
1277;DHT22;631;51.024;13.826;2022-12-18T13:12:52;1.50;86.40
1277;DHT22;631;51.024;13.826;2022-12-18T13:20:39;1.20;91.00
1277;DHT22;631;51.024;13.826;2022-12-18T13:28:55;0.20;97.60
1277;DHT22;631;51.024;13.826;2022-12-18T13:36:35;-0.40;99.90
1277;DHT22;631;51.024;13.826;2022-12-18T13:41:39;-0.70;99.90
1277;DHT22;631;51.024;13.826;2022-12-18T13:44:37;-0.90;99.90
1277;DHT22;631;51.024;13.826;2022-12-18T13:47:05;-1.10;99.90
1277;DHT22;631;51.024;13.826;2022-12-18T13:49:40;-1.20;99.90
1277;DHT22;631;51.024;13.826;2022-12-18T13:52:17;-1.30;99.90
1277;DHT22;631;51.024;13.826;2022-12-18T13:54:47;-1.30;99.90
1277;DHT22;631;51.024;13.826;2022-12-18T13:57:35;-1.40;99.90
1277;DHT22;631;51.024;13.826;2022-12-18T14:02:50;-1.30;99.90
1277;DHT22;631;51.024;13.826;2022-12-18T14:07:53;-1.40;99.90
1277;DHT22;631;51.024;13.826;2022-12-18T14:10:21;-1.40;99.90
1277;DHT22;631;51.024;13.826;2022-12-18T14:12:48;-1.40;99.90
1277;DHT22;631;51.024;13.826;2022-12-18T14:18:02;-1.70;99.90
1277;DHT22;631;51.024;13.826;2022-12-18T14:20:31;-1.80;99.90
1277;DHT22;631;51.024;13.826;2022-12-18T14:22:57;-1.90;99.90
1277;DHT22;631;51.024;13.826;2022-12-18T14:25:28;-2.10;99.90
1277;DHT22;631;51.024;13.826;2022-12-18T14:28:13;-2.20;99.90
1277;DHT22;631;51.024;13.826;2022-12-18T14:30:41;-2.30;99.90
1277;DHT22;631;51.024;13.826;2022-12-18T14:33:16;-2.40;99.90
1277;DHT22;631;51.024;13.826;2022-12-18T14:36:03;-2.50;99.90
1277;DHT22;631;51.024;13.826;2022-12-18T14:41:04;-2.80;99.90
1277;DHT22;631;51.024;13.826;2022-12-18T14:43:36;-2.80;99.90
1277;DHT22;631;51.024;13.826;2022-12-18T14:46:04;-3.00;99.90
1277;DHT22;631;51.024;13.826;2022-12-18T14:48:35;-3.10;99.90
1277;DHT22;631;51.024;13.826;2022-12-18T14:51:13;-3.20;99.90
1277;DHT22;631;51.024;13.826;2022-12-18T14:53:42;-3.20;99.90
1277;DHT22;631;51.024;13.826;2022-12-18T14:56:18;-3.30;99.90
1277;DHT22;631;51.024;13.826;2022-12-18T14:58:50;-3.30;99.90
1277;DHT22;631;51.024;13.826;2022-12-18T15:01:22;-3.30;99.90
1277;DHT22;631;51.024;13.826;2022-12-18T15:03:50;-3.40;99.90
1277;DHT22;631;51.024;13.826;2022-12-18T15:06:27;-3.50;99.90
1277;DHT22;631;51.024;13.826;2022-12-18T15:08:53;-3.60;99.90
1277;DHT22;631;51.024;13.826;2022-12-18T15:11:48;-3.60;99.90
1277;DHT22;631;51.024;13.826;2022-12-18T15:14:34;-3.70;99.90
1277;DHT22;631;51.024;13.826;2022-12-18T15:17:14;-3.70;99.90
1277;DHT22;631;51.024;13.826;2022-12-18T15:19:42;-3.80;99.90
1277;DHT22;631;51.024;13.826;2022-12-18T15:22:28;-3.80;99.90
1277;DHT22;631;51.024;13.826;2022-12-18T15:24:56;-3.80;99.90
1277;DHT22;631;51.024;13.826;2022-12-18T15:27:35;-3.80;99.90
1277;DHT22;631;51.024;13.826;2022-12-18T15:32:36;-3.90;99.90
1277;DHT22;631;51.024;13.826;2022-12-18T15:35:24;-3.90;99.90
1277;DHT22;631;51.024;13.826;2022-12-18T15:37:51;-3.90;99.90
1277;DHT22;631;51.024;13.826;2022-12-18T15:40:22;-3.90;99.90
1277;DHT22;631;51.024;13.826;2022-12-18T15:42:52;-3.90;99.90
1277;DHT22;631;51.024;13.826;2022-12-18T15:45:37;-3.90;99.90
1277;DHT22;631;51.024;13.826;2022-12-18T15:48:21;-4.00;99.90
1277;DHT22;631;51.024;13.826;2022-12-18T15:50:46;-4.00;99.90
1277;DHT22;631;51.024;13.826;2022-12-18T15:53:12;-4.00;99.90
1277;DHT22;631;51.024;13.826;2022-12-18T15:55:38;-4.00;99.90
1277;DHT22;631;51.024;13.826;2022-12-18T15:58:22;-4.00;99.90
1277;DHT22;631;51.024;13.826;2022-12-18T16:00:47;-4.00;99.90
1277;DHT22;631;51.024;13.826;2022-12-18T16:03:13;-4.00;99.90
1277;DHT22;631;51.024;13.826;2022-12-18T16:05:39;-4.00;99.90
1277;DHT22;631;51.024;13.826;2022-12-18T16:08:04;-4.00;99.90
1277;DHT22;631;51.024;13.826;2022-12-18T16:10:30;-4.00;99.90
1277;DHT22;631;51.024;13.826;2022-12-18T16:12:56;-4.00;99.90
1277;DHT22;631;51.024;13.826;2022-12-18T16:15:21;-4.00;99.90
1277;DHT22;631;51.024;13.826;2022-12-18T16:17:47;-4.00;99.90
1277;DHT22;631;51.024;13.826;2022-12-18T16:20:15;-4.00;99.90
1277;DHT22;631;51.024;13.826;2022-12-18T16:22:42;-4.00;99.90
1277;DHT22;631;51.024;13.826;2022-12-18T16:25:20;-4.00;99.90
1277;DHT22;631;51.024;13.826;2022-12-18T16:27:46;-4.00;99.90
1277;DHT22;631;51.024;13.826;2022-12-18T16:30:19;-4.00;99.90
1277;DHT22;631;51.024;13.826;2022-12-18T16:32:45;-4.00;99.90
1277;DHT22;631;51.024;13.826;2022-12-18T16:35:12;-4.00;99.90
1277;DHT22;631;51.024;13.826;2022-12-18T16:37:39;-4.10;99.90
1277;DHT22;631;51.024;13.826;2022-12-18T16:40:06;-4.10;99.90
1277;DHT22;631;51.024;13.826;2022-12-18T16:42:34;-4.10;99.90
1277;DHT22;631;51.024;13.826;2022-12-18T16:45:00;-4.10;99.90
1277;DHT22;631;51.024;13.826;2022-12-18T16:47:25;-4.10;99.90
1277;DHT22;631;51.024;13.826;2022-12-18T16:49:51;-4.10;99.90
1277;DHT22;631;51.024;13.826;2022-12-18T16:52:18;-4.10;99.90
1277;DHT22;631;51.024;13.826;2022-12-18T16:54:43;-4.00;99.90
1277;DHT22;631;51.024;13.826;2022-12-18T16:57:16;-4.00;99.90
1277;DHT22;631;51.024;13.826;2022-12-18T16:59:42;-4.00;99.90
1277;DHT22;631;51.024;13.826;2022-12-18T17:02:28;-4.00;99.90
1277;DHT22;631;51.024;13.826;2022-12-18T17:04:55;-4.00;99.90
1277;DHT22;631;51.024;13.826;2022-12-18T17:07:22;-4.00;99.90
1277;DHT22;631;51.024;13.826;2022-12-18T17:09:48;-3.90;99.90
1277;DHT22;631;51.024;13.826;2022-12-18T17:12:15;-4.00;99.90
1277;DHT22;631;51.024;13.826;2022-12-18T17:14:41;-3.90;99.90
1277;DHT22;631;51.024;13.826;2022-12-18T17:17:07;-3.90;99.90
1277;DHT22;631;51.024;13.826;2022-12-18T17:19:32;-3.90;99.90
1277;DHT22;631;51.024;13.826;2022-12-18T17:21:58;-3.90;99.90
1277;DHT22;631;51.024;13.826;2022-12-18T17:24:24;-3.90;99.90
1277;DHT22;631;51.024;13.826;2022-12-18T17:26:50;-3.90;99.90
1277;DHT22;631;51.024;13.826;2022-12-18T17:29:17;-3.90;99.90
1277;DHT22;631;51.024;13.826;2022-12-18T17:31:44;-3.90;99.90
1277;DHT22;631;51.024;13.826;2022-12-18T17:34:10;-3.90;99.90
1277;DHT22;631;51.024;13.826;2022-12-18T17:36:36;-3.90;99.90
1277;DHT22;631;51.024;13.826;2022-12-18T17:39:03;-3.90;99.90
1277;DHT22;631;51.024;13.826;2022-12-18T17:41:29;-3.80;99.90
1277;DHT22;631;51.024;13.826;2022-12-18T17:43:56;-3.80;99.90
1277;DHT22;631;51.024;13.826;2022-12-18T17:46:22;-3.80;99.90
1277;DHT22;631;51.024;13.826;2022-12-18T17:48:48;-3.80;99.90
1277;DHT22;631;51.024;13.826;2022-12-18T17:51:15;-3.80;99.90
1277;DHT22;631;51.024;13.826;2022-12-18T17:53:41;-3.80;99.90
1277;DHT22;631;51.024;13.826;2022-12-18T17:56:08;-3.80;99.90
1277;DHT22;631;51.024;13.826;2022-12-18T17:58:36;-3.80;99.90
1277;DHT22;631;51.024;13.826;2022-12-18T18:01:02;-3.80;99.90
1277;DHT22;631;51.024;13.826;2022-12-18T18:03:28;-3.70;99.90
1277;DHT22;631;51.024;13.826;2022-12-18T18:05:58;-3.70;99.90
1277;DHT22;631;51.024;13.826;2022-12-18T18:08:24;-3.70;99.90
1277;DHT22;631;51.024;13.826;2022-12-18T18:10:50;-3.70;99.90
1277;DHT22;631;51.024;13.826;2022-12-18T18:13:24;-3.70;99.90
1277;DHT22;631;51.024;13.826;2022-12-18T18:16:10;-3.60;99.90